Time;durP1;ratioP1;P1;durP2;ratioP2;P2;SDS_P1;SDS_P2;PMS_P1;PMS_P2;Temp;Humidity;BMP_temperature;BMP_pressure;BME280_temperature;BME280_humidity;BME280_pressure;Samples;Min_cycle;Max_cycle;Signal;HPM_P1;HPM_P2
2020/12/02 00:02:14;;;;;;;;;;;;;;;-2.27;65.07;98823.41;1693958;84;22214;-85
2020/12/02 00:05:00;;;;;;;;;;;;;;;-2.43;65.06;98816.78;1694779;84;26186;-85
2020/12/02 00:07:45;;;;;;;;;;;;;;;-2.58;65.03;98817.38;1687964;84;24812;-85
2020/12/02 00:10:32;;;;;;;;;;;;;;;-2.64;65.02;98823.00;1691522;84;20334;-85
2020/12/02 00:13:18;;;;;;;;;;;;;;;-2.73;65.05;98821.83;1692654;84;25242;-84
2020/12/02 00:16:04;;;;;;;;;;;;;;;-2.77;65.08;98818.86;1691197;84;22153;-84
2020/12/02 00:18:50;;;;;;;;;;;;;;;-2.85;65.11;98821.52;1691352;84;26192;-85
2020/12/02 00:21:36;;;;;;;;;;;;;;;-2.92;65.15;98815.19;1694935;84;24732;-85
2020/12/02 00:24:23;;;;;;;;;;;;;;;-2.94;65.18;98822.88;1691938;84;20291;-85
2020/12/02 00:27:09;;;;;;;;;;;;;;;-2.98;65.22;98819.51;1694732;84;25344;-85
2020/12/02 00:30:00;;;;;;;;;;;;;;;-2.93;65.29;98814.77;1693479;84;22100;-85
2020/12/02 00:32:46;;;;;;;;;;;;;;;-2.62;65.38;98811.86;1690920;84;26968;-86
2020/12/02 00:35:32;;;;;;;;;;;;;;;-2.34;65.51;98817.94;1689509;84;25516;-85
2020/12/02 00:38:18;;;;;;;;;;;;;;;-2.07;65.62;98819.33;1692824;84;20367;-85
2020/12/02 00:41:06;;;;;;;;;;;;;;;-1.99;65.74;98818.77;1689691;84;38281;-85
2020/12/02 00:43:53;;;;;;;;;;;;;;;-2.24;65.81;98821.68;1695049;84;22988;-86
2020/12/02 00:46:40;;;;;;;;;;;;;;;-2.42;65.84;98816.77;1695329;84;27065;-85
2020/12/02 00:49:26;;;;;;;;;;;;;;;-2.52;65.82;98819.45;1690347;83;24606;-85
2020/12/02 00:52:12;;;;;;;;;;;;;;;-2.33;65.83;98823.48;1692811;84;20290;-85
2020/12/02 00:54:58;;;;;;;;;;;;;;;-2.32;65.88;98822.63;1685899;84;25769;-85
2020/12/02 00:57:45;;;;;;;;;;;;;;;-2.31;65.89;98820.05;1694083;84;22105;-85
2020/12/02 01:00:31;;;;;;;;;;;;;;;-2.17;65.94;98818.58;1626722;87;26136;-85
2020/12/02 01:03:18;;;;;;;;;;;;;;;-2.08;65.98;98818.91;1621796;87;24775;-85
2020/12/02 01:06:05;;;;;;;;;;;;;;;-1.93;66.05;98823.83;1605513;87;20316;-85
2020/12/02 01:08:52;;;;;;;;;;;;;;;-1.86;66.13;98823.73;1623261;87;25893;-85
2020/12/02 01:11:38;;;;;;;;;;;;;;;-1.87;66.18;98827.59;1652985;86;22079;-84
2020/12/02 01:14:25;;;;;;;;;;;;;;;-1.93;66.19;98823.39;1637532;87;26995;-84
2020/12/02 01:17:11;;;;;;;;;;;;;;;-2.02;66.17;98826.09;1631825;86;25732;-84
2020/12/02 01:20:02;;;;;;;;;;;;;;;-2.00;66.16;98820.92;1639893;87;20629;-84
2020/12/02 01:22:49;;;;;;;;;;;;;;;-1.94;66.17;98822.97;1647238;86;25143;-84
2020/12/02 01:25:35;;;;;;;;;;;;;;;-1.92;66.17;98818.68;1682977;84;22279;-84
2020/12/02 01:28:21;;;;;;;;;;;;;;;-1.86;66.19;98817.75;1688097;84;25515;-84
2020/12/02 01:31:08;;;;;;;;;;;;;;;-1.90;66.21;98816.92;1690270;83;24596;-84
2020/12/02 01:33:55;;;;;;;;;;;;;;;-1.89;66.24;98816.06;1667214;84;20290;-84
2020/12/02 01:36:28;;;;;;;;;;;;;;;-1.86;66.25;98810.91;1692564;84;25128;-84
2020/12/02 01:39:15;;;;;;;;;;;;;;;-1.91;66.25;98815.22;1694573;84;22096;-85
2020/12/02 01:42:00;;;;;;;;;;;;;;;-1.87;66.25;98813.05;1693533;84;25484;-85
2020/12/02 01:44:46;;;;;;;;;;;;;;;-1.84;66.24;98807.02;1690432;84;24762;-85
2020/12/02 01:47:32;;;;;;;;;;;;;;;-1.98;66.24;98805.94;1685384;84;20289;-85
2020/12/02 01:50:21;;;;;;;;;;;;;;;-2.05;66.24;98801.75;1688096;84;26105;-85
2020/12/02 01:53:07;;;;;;;;;;;;;;;-2.37;66.18;98799.62;1694083;84;22471;-85
2020/12/02 01:55:57;;;;;;;;;;;;;;;-2.68;66.10;98797.02;1688721;84;26305;-85
2020/12/02 01:58:46;;;;;;;;;;;;;;;-2.88;66.04;98805.33;1688691;84;24681;-85
2020/12/02 02:01:32;;;;;;;;;;;;;;;-2.96;65.99;98790.91;1693035;84;20286;-85
2020/12/02 02:04:18;;;;;;;;;;;;;;;-2.98;65.96;98797.75;1693006;84;25107;-85
2020/12/02 02:07:05;;;;;;;;;;;;;;;-2.93;65.97;98795.56;1695070;84;22351;-85
2020/12/02 02:09:51;;;;;;;;;;;;;;;-2.92;65.99;98793.00;1687310;84;27079;-85
2020/12/02 02:12:41;;;;;;;;;;;;;;;-2.85;66.05;98787.38;1687879;84;24664;-85
2020/12/02 02:15:27;;;;;;;;;;;;;;;-2.68;66.11;98787.63;1689643;84;20289;-85
2020/12/02 02:18:16;;;;;;;;;;;;;;;-2.49;66.19;98788.23;1690587;84;25132;-84
2020/12/02 02:21:02;;;;;;;;;;;;;;;-2.35;66.25;98792.77;1692186;84;22156;-84
2020/12/02 02:23:49;;;;;;;;;;;;;;;-2.20;66.33;98792.56;1686616;84;27217;-85
2020/12/02 02:26:35;;;;;;;;;;;;;;;-2.25;66.40;98789.65;1696830;83;24640;-85
2020/12/02 02:29:22;;;;;;;;;;;;;;;-2.56;66.41;98790.44;1695468;83;20405;-85
2020/12/02 02:32:09;;;;;;;;;;;;;;;-2.79;66.37;98797.14;1699756;83;25315;-85
2020/12/02 02:34:55;;;;;;;;;;;;;;;-2.86;66.33;98792.94;1699504;83;22154;-84
2020/12/02 02:37:41;;;;;;;;;;;;;;;-2.67;66.33;98788.01;1704605;83;26389;-84
2020/12/02 02:40:27;;;;;;;;;;;;;;;-2.48;66.38;98792.92;1702667;83;24625;-84
2020/12/02 02:43:13;;;;;;;;;;;;;;;-2.46;66.42;98784.80;1697008;83;20280;-85
2020/12/02 02:45:59;;;;;;;;;;;;;;;-2.35;66.47;98788.08;1700607;83;25138;-85
2020/12/02 02:48:45;;;;;;;;;;;;;;;-2.32;66.52;98786.31;1702591;83;22186;-84
2020/12/02 02:51:35;;;;;;;;;;;;;;;-2.42;66.56;98782.61;1704218;82;26159;-85
2020/12/02 02:54:21;;;;;;;;;;;;;;;-2.55;66.54;98781.90;1703525;83;24629;-84
2020/12/02 02:57:08;;;;;;;;;;;;;;;-2.50;66.53;98785.68;1699194;83;20519;-85
2020/12/02 02:59:55;;;;;;;;;;;;;;;-2.72;66.50;98782.09;1701975;83;25097;-84
2020/12/02 03:02:41;;;;;;;;;;;;;;;-2.90;66.46;98780.19;1705807;83;22908;-84
2020/12/02 03:05:27;;;;;;;;;;;;;;;-3.00;66.40;98784.56;1697444;83;25623;-84
2020/12/02 03:08:14;;;;;;;;;;;;;;;-3.05;66.40;98789.70;1700031;83;25623;-84
2020/12/02 03:11:01;;;;;;;;;;;;;;;-2.97;66.38;98784.09;1702418;83;20435;-84
2020/12/02 03:13:49;;;;;;;;;;;;;;;-2.88;66.41;98784.41;1699486;83;25251;-84
2020/12/02 03:16:35;;;;;;;;;;;;;;;-2.82;66.45;98786.91;1703558;83;22323;-85
2020/12/02 03:19:21;;;;;;;;;;;;;;;-2.88;66.48;98784.41;1700070;83;26334;-85
2020/12/02 03:22:08;;;;;;;;;;;;;;;-2.85;66.50;98785.67;1699895;83;24721;-84
2020/12/02 03:24:54;;;;;;;;;;;;;;;-2.84;66.52;98783.53;1703171;83;20268;-84
2020/12/02 03:27:40;;;;;;;;;;;;;;;-2.99;66.52;98792.63;1695748;83;25137;-85
2020/12/02 03:30:27;;;;;;;;;;;;;;;-2.95;66.53;98785.36;1693898;84;22186;-84
2020/12/02 03:33:13;;;;;;;;;;;;;;;-2.82;66.56;98786.91;1692563;84;26096;-84
2020/12/02 03:35:59;;;;;;;;;;;;;;;-2.66;66.58;98787.58;1691520;84;24504;-84
2020/12/02 03:38:45;;;;;;;;;;;;;;;-2.52;66.63;98793.84;1692745;84;20396;-84
2020/12/02 03:41:35;;;;;;;;;;;;;;;-2.44;66.68;98795.42;1693424;84;26043;-84
2020/12/02 03:44:21;;;;;;;;;;;;;;;-2.48;66.70;98786.09;1685958;84;22137;-84
2020/12/02 03:47:07;;;;;;;;;;;;;;;-2.44;66.72;98790.30;1691884;83;26143;-84
2020/12/02 03:49:58;;;;;;;;;;;;;;;-2.47;66.75;98789.50;1694164;84;25680;-85
2020/12/02 03:52:44;;;;;;;;;;;;;;;-2.36;66.76;98792.78;1691874;84;20282;-85
2020/12/02 03:58:12;;;;;;;;;;;;;;;-2.81;66.74;98784.77;1691014;84;22127;-84
2020/12/02 04:00:58;;;;;;;;;;;;;;;-2.96;66.68;98783.23;1693289;84;26287;-84
2020/12/02 04:03:37;;;;;;;;;;;;;;;-2.96;66.63;98784.52;1694724;84;25384;-84
2020/12/02 04:06:25;;;;;;;;;;;;;;;-2.86;66.64;98778.85;1691673;84;20530;-84
2020/12/02 04:09:13;;;;;;;;;;;;;;;-2.75;66.65;98778.73;1690564;84;25200;-84
2020/12/02 04:12:02;;;;;;;;;;;;;;;-2.69;66.67;98779.52;1690276;84;22108;-85
2020/12/02 04:14:48;;;;;;;;;;;;;;;-2.57;66.72;98781.94;1689647;84;26972;-84
2020/12/02 04:17:35;;;;;;;;;;;;;;;-2.52;66.77;98783.16;1687837;84;24611;-84
2020/12/02 04:20:21;;;;;;;;;;;;;;;-2.47;66.77;98783.95;1695517;83;20430;-84
2020/12/02 04:23:08;;;;;;;;;;;;;;;-2.40;66.77;98779.60;1690344;84;25939;-85
2020/12/02 04:25:54;;;;;;;;;;;;;;;-2.37;66.80;98776.55;1691580;84;22287;-84
2020/12/02 04:28:42;;;;;;;;;;;;;;;-2.47;66.78;98776.27;1683727;84;26332;-84
2020/12/02 04:31:28;;;;;;;;;;;;;;;-2.60;66.73;98770.43;1695303;84;24619;-84
2020/12/02 04:34:17;;;;;;;;;;;;;;;-2.70;66.69;98776.53;1693174;84;20298;-84
2020/12/02 04:37:03;;;;;;;;;;;;;;;-2.86;66.65;98776.72;1692138;84;25132;-84
2020/12/02 04:39:49;;;;;;;;;;;;;;;-2.85;66.60;98778.42;1692197;84;22115;-84
2020/12/02 04:42:36;;;;;;;;;;;;;;;-2.90;66.59;98776.34;1690709;84;26110;-85
2020/12/02 04:45:22;;;;;;;;;;;;;;;-3.16;66.54;98781.70;1694436;84;25632;-85
2020/12/02 04:48:08;;;;;;;;;;;;;;;-3.38;66.49;98782.34;1694956;84;20412;-85
2020/12/02 04:50:54;;;;;;;;;;;;;;;-3.59;66.46;98786.36;1688537;84;25352;-85
2020/12/02 04:53:41;;;;;;;;;;;;;;;-3.77;66.40;98785.24;1691992;84;22097;-86
2020/12/02 04:56:28;;;;;;;;;;;;;;;-3.93;66.35;98789.62;1688660;84;26157;-85
2020/12/02 04:59:14;;;;;;;;;;;;;;;-4.05;66.32;98786.70;1686167;84;24608;-84
2020/12/02 05:02:00;;;;;;;;;;;;;;;-4.19;66.29;98793.58;1692698;84;20551;-84
2020/12/02 05:04:50;;;;;;;;;;;;;;;-4.27;66.28;98797.91;1692207;83;25971;-84
2020/12/02 05:07:36;;;;;;;;;;;;;;;-4.39;66.28;98794.97;1695552;84;21467;-84
2020/12/02 05:10:26;;;;;;;;;;;;;;;-4.46;66.28;98798.83;1688940;84;26168;-84
2020/12/02 05:13:12;;;;;;;;;;;;;;;-4.49;66.30;98799.70;1689828;84;24586;-84
2020/12/02 05:15:59;;;;;;;;;;;;;;;-4.33;66.34;98800.06;1694556;84;20271;-84
2020/12/02 05:18:45;;;;;;;;;;;;;;;-4.06;66.44;98793.95;1691247;84;25156;-84
2020/12/02 05:21:32;;;;;;;;;;;;;;;-3.81;66.52;98792.91;1688446;84;22119;-84
2020/12/02 05:24:19;;;;;;;;;;;;;;;-3.61;66.66;98794.50;1688853;84;26117;-84
2020/12/02 05:27:05;;;;;;;;;;;;;;;-3.51;66.76;98791.85;1683887;84;24668;-84
2020/12/02 05:29:50;;;;;;;;;;;;;;;-3.45;66.84;98796.06;1706814;83;20377;-84
2020/12/02 05:32:36;;;;;;;;;;;;;;;-3.36;66.93;98797.26;1706711;83;25129;-84
2020/12/02 05:35:26;;;;;;;;;;;;;;;-3.31;67.00;98796.78;1707835;83;22154;-85
2020/12/02 05:38:13;;;;;;;;;;;;;;;-3.37;67.06;98799.39;1708947;83;27062;-84
2020/12/02 05:40:59;;;;;;;;;;;;;;;-3.58;67.02;98803.41;1699822;83;24696;-84
2020/12/02 05:43:45;;;;;;;;;;;;;;;-3.71;66.97;98800.55;1704984;83;20338;-84
2020/12/02 05:46:31;;;;;;;;;;;;;;;-3.81;66.94;98791.64;1704903;83;26089;-86
2020/12/02 05:49:17;;;;;;;;;;;;;;;-3.76;66.93;98789.05;1705722;83;23040;-85
2020/12/02 05:52:03;;;;;;;;;;;;;;;-3.69;66.93;98788.57;1708155;83;26206;-85
2020/12/02 05:54:50;;;;;;;;;;;;;;;-3.77;66.93;98796.75;1707312;83;24676;-85
2020/12/02 05:57:36;;;;;;;;;;;;;;;-3.80;66.93;98795.05;1705244;83;20287;-85
2020/12/02 06:00:22;;;;;;;;;;;;;;;-3.86;66.94;98796.36;1703815;83;26017;-85
2020/12/02 06:03:08;;;;;;;;;;;;;;;-4.01;66.91;98797.74;1710126;83;22204;-84
2020/12/02 06:05:54;;;;;;;;;;;;;;;-3.99;66.90;98790.93;1704068;83;26266;-85
2020/12/02 06:08:39;;;;;;;;;;;;;;;-3.89;66.92;98790.01;1705157;83;24592;-85
2020/12/02 06:11:28;;;;;;;;;;;;;;;-3.91;66.93;98779.78;1705309;83;20292;-85
2020/12/02 06:14:14;;;;;;;;;;;;;;;-3.88;66.96;98781.06;1705976;83;25191;-85
2020/12/02 06:17:00;;;;;;;;;;;;;;;-3.75;67.00;98784.78;1706080;83;22949;-85
2020/12/02 06:19:50;;;;;;;;;;;;;;;-3.65;67.07;98787.68;1709119;83;26157;-85
2020/12/02 06:22:36;;;;;;;;;;;;;;;-3.87;67.10;98785.71;1704892;83;24619;-85
2020/12/02 06:25:22;;;;;;;;;;;;;;;-4.10;67.08;98788.87;1706369;83;20478;-85
2020/12/02 06:28:08;;;;;;;;;;;;;;;-4.33;67.07;98797.93;1697684;82;25854;-85
2020/12/02 06:30:55;;;;;;;;;;;;;;;-4.49;67.04;98800.12;1686470;83;22274;-86
2020/12/02 06:33:41;;;;;;;;;;;;;;;-4.49;67.03;98798.86;1690380;84;26183;-84
2020/12/02 06:36:28;;;;;;;;;;;;;;;-4.61;67.02;98794.64;1693782;84;24613;-85
2020/12/02 06:39:14;;;;;;;;;;;;;;;-4.72;67.00;98795.11;1692422;84;20354;-85
2020/12/02 06:42:04;;;;;;;;;;;;;;;-4.88;66.99;98793.03;1695348;84;25984;-84
2020/12/02 06:44:53;;;;;;;;;;;;;;;-4.94;67.00;98790.50;1691211;84;23039;-84
2020/12/02 06:47:39;;;;;;;;;;;;;;;-4.91;67.01;98795.58;1694540;84;26124;-83
2020/12/02 06:50:26;;;;;;;;;;;;;;;-4.88;67.05;98789.63;1690177;84;25476;-83
2020/12/02 06:53:12;;;;;;;;;;;;;;;-4.74;67.12;98784.89;1691162;84;20274;-84
2020/12/02 06:56:00;;;;;;;;;;;;;;;-4.74;67.17;98785.31;1692401;84;25122;-83
2020/12/02 06:58:46;;;;;;;;;;;;;;;-4.76;67.23;98793.42;1691941;84;22994;-83
2020/12/02 07:01:32;;;;;;;;;;;;;;;-4.86;67.26;98789.21;1688750;84;26070;-83
2020/12/02 07:04:19;;;;;;;;;;;;;;;-4.88;67.32;98789.63;1692957;83;24492;-84
2020/12/02 07:07:06;;;;;;;;;;;;;;;-4.83;67.35;98795.14;1690841;83;20272;-84
2020/12/02 07:09:52;;;;;;;;;;;;;;;-4.54;67.44;98791.22;1695384;83;25093;-84
2020/12/02 07:12:40;;;;;;;;;;;;;;;-4.24;67.53;98790.20;1692728;84;22180;-84
2020/12/02 07:15:26;;;;;;;;;;;;;;;-4.14;67.65;98788.44;1691886;84;26945;-85
2020/12/02 07:18:13;;;;;;;;;;;;;;;-4.13;67.75;98787.59;1627608;87;25424;-84
2020/12/02 07:21:00;;;;;;;;;;;;;;;-4.06;67.84;98785.00;1650566;86;20315;-82
2020/12/02 07:23:51;;;;;;;;;;;;;;;-3.92;67.89;98781.91;1658372;86;25228;-83
2020/12/02 07:26:44;;;;;;;;;;;;;;;-3.91;67.96;98790.01;1634595;87;22480;-84
2020/12/02 07:29:30;;;;;;;;;;;;;;;-3.82;68.00;98780.98;1632594;86;25420;-85
2020/12/02 07:32:35;;;;;;;;;;;;;;;-3.71;68.05;98785.20;1670004;85;24800;-83
2020/12/02 07:35:23;;;;;;;;;;;;;;;-3.69;68.08;98784.73;1671681;85;20352;-84
2020/12/02 07:38:13;;;;;;;;;;;;;;;-3.64;68.14;98774.05;1630631;87;26119;-83
2020/12/02 07:41:04;;;;;;;;;;;;;;;-3.58;68.16;98782.52;1652731;86;22142;-83
2020/12/02 07:43:57;;;;;;;;;;;;;;;-3.36;68.19;98776.79;1627207;87;27159;-83
2020/12/02 07:46:44;;;;;;;;;;;;;;;-3.16;68.26;98780.00;1642247;87;25626;-82
2020/12/02 07:49:52;;;;;;;;;;;;;;;-3.02;68.30;98783.72;1696315;82;20268;-82
2020/12/02 07:52:40;;;;;;;;;;;;;;;-3.02;68.35;98786.28;1710098;82;25086;-82
2020/12/02 07:55:29;;;;;;;;;;;;;;;-3.10;68.33;98786.34;1698698;84;22148;-82
2020/12/02 07:58:25;;;;;;;;;;;;;;;-3.06;68.35;98779.50;1689905;84;26220;-83
2020/12/02 08:01:15;;;;;;;;;;;;;;;-2.99;68.36;98780.69;1692080;84;25352;-82
2020/12/02 08:04:03;;;;;;;;;;;;;;;-2.84;68.36;98785.25;1698219;84;20363;-83
2020/12/02 08:06:54;;;;;;;;;;;;;;;-2.78;68.38;98782.63;1697929;84;25331;-83
2020/12/02 08:09:59;;;;;;;;;;;;;;;-2.74;68.39;98779.16;1699648;84;22111;-82
2020/12/02 08:12:52;;;;;;;;;;;;;;;-2.74;68.38;98776.59;1692416;84;26227;-83
2020/12/02 08:19:37;;;;;;;;;;;;;;;-2.84;68.35;98769.88;1649268;85;20219;-83
2020/12/02 08:22:26;;;;;;;;;;;;;;;-2.85;68.33;98773.30;1626418;87;25119;-83
2020/12/02 08:25:25;;;;;;;;;;;;;;;-2.98;68.32;98778.55;1600575;87;21175;-83
2020/12/02 08:28:23;;;;;;;;;;;;;;;-3.13;68.27;98777.86;1639316;87;26445;-83
2020/12/02 08:31:16;;;;;;;;;;;;;;;-3.37;68.23;98782.77;1624619;87;25769;-83
2020/12/02 08:34:03;;;;;;;;;;;;;;;-3.60;68.15;98780.39;1614009;88;20305;-83
2020/12/02 08:36:49;;;;;;;;;;;;;;;-3.77;68.13;98779.70;1654001;85;25015;-83
2020/12/02 08:39:35;;;;;;;;;;;;;;;-3.88;68.08;98778.50;1640657;85;22169;-83
2020/12/02 08:42:31;;;;;;;;;;;;;;;-3.93;68.06;98778.94;1645828;85;26151;-83
2020/12/02 08:45:17;;;;;;;;;;;;;;;-4.01;68.10;98781.98;1640151;85;24629;-82
2020/12/02 08:48:03;;;;;;;;;;;;;;;-4.06;68.11;98773.92;1650311;85;20270;-82
2020/12/02 08:51:00;;;;;;;;;;;;;;;-4.08;68.17;98774.35;1631875;87;25101;-83
2020/12/02 08:54:17;;;;;;;;;;;;;;;-4.08;68.23;98779.04;1607849;87;20313;-83
2020/12/02 08:57:04;;;;;;;;;;;;;;;-4.08;68.33;98779.04;1634386;86;26178;-82
2020/12/02 08:59:50;;;;;;;;;;;;;;;-4.03;68.41;98779.00;1624332;87;25395;-82
2020/12/02 09:02:41;;;;;;;;;;;;;;;-3.92;68.53;98771.69;1648708;85;20245;-83
2020/12/02 09:05:31;;;;;;;;;;;;;;;-3.87;68.65;98776.34;1641677;85;25944;-83
2020/12/02 09:08:23;;;;;;;;;;;;;;;-3.83;68.77;98774.63;1641952;84;22357;-83
2020/12/02 09:11:14;;;;;;;;;;;;;;;-3.79;68.89;98772.46;1648632;85;26138;-83
2020/12/02 09:14:03;;;;;;;;;;;;;;;-3.79;68.99;98768.63;1658510;85;24414;-82
2020/12/02 09:16:51;;;;;;;;;;;;;;;-3.77;69.11;98764.36;1649208;84;20498;-82
2020/12/02 09:19:57;;;;;;;;;;;;;;;-3.72;69.18;98769.44;1650764;85;25282;-82
2020/12/02 09:22:52;;;;;;;;;;;;;;;-3.70;69.28;98761.30;1644600;85;21563;-82
2020/12/02 09:25:39;;;;;;;;;;;;;;;-3.63;69.38;98752.73;1656987;85;26202;-82
2020/12/02 09:28:27;;;;;;;;;;;;;;;-3.52;69.47;98753.48;1661721;85;24844;-82
2020/12/02 09:31:14;;;;;;;;;;;;;;;-3.45;69.57;98749.59;1646789;85;20271;-82
2020/12/02 09:34:02;;;;;;;;;;;;;;;-3.46;69.66;98747.89;1656880;84;26066;-83
2020/12/02 09:36:52;;;;;;;;;;;;;;;-3.48;69.74;98741.93;1654322;85;22240;-83
2020/12/02 09:39:39;;;;;;;;;;;;;;;-3.47;69.79;98738.94;1656174;85;26157;-83
2020/12/02 09:42:25;;;;;;;;;;;;;;;-3.41;69.87;98745.28;1656303;86;24565;-83
2020/12/02 09:45:12;;;;;;;;;;;;;;;-3.35;69.92;98745.23;1648393;86;20286;-83
2020/12/02 09:51:10;;;;;;;;;;;;;;;-3.23;70.05;98742.56;1657891;85;21337;-83
2020/12/02 09:53:58;;;;;;;;;;;;;;;-3.22;70.12;98739.14;1634024;84;27109;-83
2020/12/02 09:56:46;;;;;;;;;;;;;;;-3.16;70.19;98740.33;1652147;84;24633;-84
2020/12/02 09:59:45;;;;;;;;;;;;;;;-3.04;70.25;98735.52;1655689;84;20366;-83
2020/12/02 10:02:26;;;;;;;;;;;;;;;-3.04;70.29;98735.52;1662355;85;26000;-84
2020/12/02 10:05:15;;;;;;;;;;;;;;;-3.01;70.34;98730.38;1657875;85;22302;-84
2020/12/02 10:08:03;;;;;;;;;;;;;;;-2.99;70.40;98729.91;1661775;86;26115;-84
2020/12/02 10:10:50;;;;;;;;;;;;;;;-2.85;70.43;98722.09;1656509;85;24682;-84
2020/12/02 10:13:37;;;;;;;;;;;;;;;-2.80;70.50;98725.44;1655438;85;20312;-83
2020/12/02 10:16:25;;;;;;;;;;;;;;;-2.83;70.53;98725.45;1658889;85;25103;-83
2020/12/02 10:19:12;;;;;;;;;;;;;;;-2.83;70.56;98721.62;1649668;85;23003;-84
2020/12/02 10:22:00;;;;;;;;;;;;;;;-2.79;70.57;98721.59;1668430;84;26163;-83
2020/12/02 10:24:46;;;;;;;;;;;;;;;-2.76;70.60;98721.54;1658726;84;24594;-83
2020/12/02 10:27:32;;;;;;;;;;;;;;;-2.69;70.66;98715.91;1655047;86;20288;-83
2020/12/02 10:30:20;;;;;;;;;;;;;;;-2.56;70.70;98707.19;1655117;84;25110;-83
2020/12/02 10:33:07;;;;;;;;;;;;;;;-2.54;70.75;98710.59;1657844;84;21361;-83
2020/12/02 10:35:55;;;;;;;;;;;;;;;-2.60;70.75;98708.95;1649715;86;25647;-83
2020/12/02 10:38:41;;;;;;;;;;;;;;;-2.62;70.78;98706.83;1648236;84;24682;-83
2020/12/02 10:41:27;;;;;;;;;;;;;;;-2.62;70.77;98704.73;1666133;85;20225;-83
2020/12/02 10:44:14;;;;;;;;;;;;;;;-2.59;70.78;98696.99;1640914;86;25914;-83
2020/12/02 10:47:00;;;;;;;;;;;;;;;-2.59;70.79;98696.99;1666826;84;22368;-83
2020/12/02 10:49:46;;;;;;;;;;;;;;;-2.55;70.83;98700.77;1667439;85;26324;-83
2020/12/02 10:52:33;;;;;;;;;;;;;;;-2.54;70.85;98693.94;1668297;84;24872;-83
2020/12/02 10:55:19;;;;;;;;;;;;;;;-2.56;70.89;98694.38;1653576;86;20446;-84
2020/12/02 10:58:06;;;;;;;;;;;;;;;-2.56;70.91;98689.25;1661353;86;26086;-84
2020/12/02 11:00:53;;;;;;;;;;;;;;;-2.54;70.93;98686.25;1660122;85;23129;-83
2020/12/02 11:03:41;;;;;;;;;;;;;;;-2.51;70.95;98677.69;1668114;84;26144;-84
2020/12/02 11:06:27;;;;;;;;;;;;;;;-2.50;70.98;98676.36;1674786;84;25302;-83
2020/12/02 11:09:13;;;;;;;;;;;;;;;-2.47;71.01;98672.92;1670897;85;20519;-83
2020/12/02 11:11:59;;;;;;;;;;;;;;;-2.45;71.02;98664.77;1662382;85;25723;-83
2020/12/02 11:14:45;;;;;;;;;;;;;;;-2.43;71.06;98660.47;1681651;84;22108;-83
2020/12/02 11:17:31;;;;;;;;;;;;;;;-2.42;71.10;98660.46;1665625;85;26109;-83
2020/12/02 11:20:17;;;;;;;;;;;;;;;-2.39;71.11;98660.40;1660875;84;24637;-83
2020/12/02 11:23:03;;;;;;;;;;;;;;;-2.39;71.12;98650.16;1665362;84;20282;-83
2020/12/02 11:25:49;;;;;;;;;;;;;;;-2.36;71.16;98645.00;1662527;85;27505;-83
2020/12/02 11:28:36;;;;;;;;;;;;;;;-2.36;71.17;98643.72;1666529;85;22463;-83
2020/12/02 11:31:23;;;;;;;;;;;;;;;-2.33;71.18;98636.40;1671770;84;26232;-83
2020/12/02 11:34:12;;;;;;;;;;;;;;;-2.30;71.19;98637.66;1649752;86;24669;-83
2020/12/02 11:36:59;;;;;;;;;;;;;;;-2.32;71.23;98627.42;1666548;86;20549;-83
2020/12/02 11:39:45;;;;;;;;;;;;;;;-2.32;71.25;98626.56;1667820;84;25921;-84
2020/12/02 11:42:31;;;;;;;;;;;;;;;-2.33;71.25;98618.46;1655720;84;22245;-83
2020/12/02 11:45:17;;;;;;;;;;;;;;;-2.34;71.26;98613.77;1671367;85;26300;-83
2020/12/02 11:48:04;;;;;;;;;;;;;;;-2.33;71.28;98608.21;1669732;85;24587;-83
2020/12/02 11:50:50;;;;;;;;;;;;;;;-2.31;71.30;98606.05;1650329;86;20445;-83
2020/12/02 11:53:38;;;;;;;;;;;;;;;-2.28;71.33;98607.27;1654672;84;25398;-83
2020/12/02 11:56:26;;;;;;;;;;;;;;;-2.27;71.34;98599.15;1665844;86;22066;-84
2020/12/02 11:59:13;;;;;;;;;;;;;;;-2.23;71.38;98595.22;1660370;84;26200;-83
2020/12/02 12:02:00;;;;;;;;;;;;;;;-2.14;71.41;98594.24;1668324;85;24618;-83
2020/12/02 12:04:46;;;;;;;;;;;;;;;-2.10;71.48;98590.75;1679130;84;20568;-83
2020/12/02 12:07:32;;;;;;;;;;;;;;;-2.09;71.52;98596.73;1659358;84;25911;-83
2020/12/02 12:10:18;;;;;;;;;;;;;;;-2.09;71.54;98583.91;1659630;84;22217;-83
2020/12/02 12:13:04;;;;;;;;;;;;;;;-2.06;71.56;98585.13;1665831;84;26123;-84
2020/12/02 12:15:50;;;;;;;;;;;;;;;-2.03;71.60;98579.95;1672718;85;24642;-84
2020/12/02 12:18:37;;;;;;;;;;;;;;;-2.02;71.61;98585.07;1650910;86;20272;-83
2020/12/02 12:21:23;;;;;;;;;;;;;;;-2.00;71.63;98585.02;1649120;85;25202;-84
2020/12/02 12:24:09;;;;;;;;;;;;;;;-1.99;71.63;98581.16;1643699;86;22247;-84
2020/12/02 12:26:56;;;;;;;;;;;;;;;-1.97;71.64;98581.14;1650476;85;26255;-84
2020/12/02 12:29:42;;;;;;;;;;;;;;;-1.95;71.64;98578.09;1649059;86;24748;-84
2020/12/02 12:32:28;;;;;;;;;;;;;;;-1.91;71.66;98579.75;1651022;84;20467;-84
2020/12/02 12:35:15;;;;;;;;;;;;;;;-1.92;71.68;98578.05;1638614;86;25139;-85
2020/12/02 12:38:02;;;;;;;;;;;;;;;-1.97;71.69;98580.70;1648694;85;22209;-84
2020/12/02 12:40:48;;;;;;;;;;;;;;;-1.98;71.69;98579.00;1650076;86;26843;-84
2020/12/02 12:43:38;;;;;;;;;;;;;;;-1.98;71.69;98571.31;1647700;85;24583;-85
2020/12/02 12:46:24;;;;;;;;;;;;;;;-2.00;71.72;98567.92;1656505;86;20303;-85
2020/12/02 12:49:10;;;;;;;;;;;;;;;-2.00;71.74;98562.79;1654208;84;25117;-83
2020/12/02 12:51:56;;;;;;;;;;;;;;;-2.02;71.76;98563.27;1644715;85;22141;-83
2020/12/02 12:54:42;;;;;;;;;;;;;;;-2.05;71.80;98556.05;1654028;85;26161;-84
2020/12/02 12:57:29;;;;;;;;;;;;;;;-2.10;71.86;98547.16;1653277;85;24622;-84
2020/12/02 13:00:15;;;;;;;;;;;;;;;-2.15;71.87;98546.41;1644882;85;20283;-85
2020/12/02 13:03:01;;;;;;;;;;;;;;;-2.22;71.92;98542.25;1648085;86;25364;-85
2020/12/02 13:05:48;;;;;;;;;;;;;;;-2.27;71.94;98543.61;1647966;85;22178;-85
2020/12/02 13:08:36;;;;;;;;;;;;;;;-2.32;71.98;98536.44;1653345;85;26126;-85
2020/12/02 13:11:22;;;;;;;;;;;;;;;-2.37;72.01;98541.23;1645602;85;24636;-85
2020/12/02 13:14:09;;;;;;;;;;;;;;;-2.42;72.06;98538.75;1649779;85;20322;-84
2020/12/02 13:16:56;;;;;;;;;;;;;;;-2.47;72.08;98540.55;1652569;85;25189;-85
2020/12/02 13:19:42;;;;;;;;;;;;;;;-2.49;72.13;98539.71;1641350;85;22120;-85
2020/12/02 13:22:28;;;;;;;;;;;;;;;-2.54;72.17;98538.51;1641986;85;27090;-84
2020/12/02 13:25:15;;;;;;;;;;;;;;;-2.57;72.22;98539.00;1641814;86;24685;-84
2020/12/02 13:28:01;;;;;;;;;;;;;;;-2.63;72.25;98537.81;1644390;86;20371;-84
2020/12/02 13:30:47;;;;;;;;;;;;;;;-2.68;72.30;98536.61;1643289;86;26163;-84
2020/12/02 13:33:33;;;;;;;;;;;;;;;-2.71;72.33;98534.52;1645654;86;22317;-84
2020/12/02 13:36:19;;;;;;;;;;;;;;;-2.76;72.37;98533.73;1643997;85;26077;-85
2020/12/02 13:39:06;;;;;;;;;;;;;;;-2.80;72.42;98526.98;1643976;86;25587;-84
2020/12/02 13:41:53;;;;;;;;;;;;;;;-2.86;72.46;98523.23;1644043;86;20280;-84
2020/12/02 13:44:40;;;;;;;;;;;;;;;-2.89;72.50;98522.02;1647877;85;25097;-84
2020/12/02 13:47:27;;;;;;;;;;;;;;;-2.93;72.56;98516.50;1628584;86;21961;-84
2020/12/02 13:50:16;;;;;;;;;;;;;;;-2.98;72.60;98522.55;1643378;86;26152;-84
2020/12/02 13:53:02;;;;;;;;;;;;;;;-3.00;72.66;98523.45;1638282;86;24617;-84
2020/12/02 13:55:48;;;;;;;;;;;;;;;-3.01;72.70;98522.60;1640772;85;20535;-85
2020/12/02 13:58:35;;;;;;;;;;;;;;;-3.04;72.75;98517.94;1637022;85;25121;-85
2020/12/02 14:01:21;;;;;;;;;;;;;;;-3.08;72.80;98514.59;1646233;85;22185;-83
2020/12/02 14:04:07;;;;;;;;;;;;;;;-3.09;72.86;98509.05;1649166;85;26977;-84
2020/12/02 14:06:54;;;;;;;;;;;;;;;-3.09;72.91;98514.17;1647689;86;24583;-84
2020/12/02 14:09:39;;;;;;;;;;;;;;;-3.07;72.96;98512.88;1650082;85;20382;-83
2020/12/02 14:12:26;;;;;;;;;;;;;;;-3.07;73.01;98512.88;1644392;86;25333;-83
2020/12/02 14:15:12;;;;;;;;;;;;;;;-3.10;73.06;98515.03;1634201;86;22379;-83
2020/12/02 14:17:58;;;;;;;;;;;;;;;-3.12;73.10;98519.78;1641284;86;26202;-83
2020/12/02 14:20:45;;;;;;;;;;;;;;;-3.12;73.16;98518.06;1628709;87;25472;-84
2020/12/02 14:23:31;;;;;;;;;;;;;;;-3.16;73.20;98520.23;1629171;86;20443;-84
2020/12/02 14:26:17;;;;;;;;;;;;;;;-3.22;73.22;98516.51;1648613;85;26012;-84
2020/12/02 14:29:03;;;;;;;;;;;;;;;-3.34;73.25;98513.27;1668167;84;22354;-83
2020/12/02 14:31:49;;;;;;;;;;;;;;;-3.44;73.28;98503.12;1671855;84;26134;-83
2020/12/02 14:34:35;;;;;;;;;;;;;;;-3.54;73.28;98500.71;1665655;84;24647;-83
2020/12/02 14:37:21;;;;;;;;;;;;;;;-3.64;73.33;98495.30;1665382;84;20291;-83
2020/12/02 14:40:08;;;;;;;;;;;;;;;-3.72;73.35;98492.02;1676654;84;25095;-83
2020/12/02 14:42:54;;;;;;;;;;;;;;;-3.80;73.38;98486.55;1665919;84;22169;-83